Echo, Minnesota
Current Conditions -  °F | °C
As of 12:33 PM on Thursday 30 Oct 2014 (Local Time) from KGDB Reporting Station
Broken Clouds Broken Clouds  
Wind Chill: 43°   Ceiling: 7000
Heat Index: 47°   Visibility: 10mi
Dew Point: 39°   Wind: 9mph
Humidity: 74%   Direction: 330°NNW
Pressure: 30.15"   Gusts: NA
Location:  44.62°N, 95.42°W
Report Text: KGDB 301733Z AUTO 33008KT 10SM SCT035 SCT048 BKN070 09/04 A3015 RMK AO2 T00850041
Loading
Personal Weather Stations






























Interactive Weather Map
Tropical Storm Tracking
New forecast layout! Learn more

10-Day Weather Forecast

Advertisements
Track Severe Weather on mobile